KSDL

Scottsdale Airport

Scottsdale, Arizona, USA
KSDL 212336Z 2200/2224 26014G22KT P6SM FEW070 SCT090 FM220200 26007KT P6SM SKC FM220600 VRB05KT P6SM SKC FM222100 24006KT P6SM FEW140
Issued Valid From Valid To
Jan-21 @ 23:36 UTC
(47 minutes ago)
Jan-22 @ 00:00 UTC
(23 minutes ago)
Jan-23 @ 00:00 UTC
(in 24 hours)
Jan-22 @ 00:00 to Jan-22 @ 02:00
KSDL 212336Z 2200/2224 26014G22KT P6SM FEW070 SCT090
Wind Visibility Clouds
260° at 14 knots
 Gusting to 22 knots
Greater than 6 miles
  • Few at 7,000' AGL
  • Scattered at 9,000' AGL
From Jan-22 @ 02:00 to Jan-22 @ 06:00
FM220200 26007KT P6SM SKC
Wind Visibility Clouds
260° at 7 knots Greater than 6 miles
  • Clear skies
From Jan-22 @ 06:00 to Jan-22 @ 21:00
FM220600 VRB05KT P6SM SKC
Wind Visibility Clouds
Variable at 5 knots Greater than 6 miles
  • Clear skies
From Jan-22 @ 21:00 to Jan-23 @ 00:00
FM222100 24006KT P6SM FEW140
Wind Visibility Clouds
240° at 6 knots Greater than 6 miles
  • Few at 14,000' AGL
KSDL 212336Z 2200/2224 26014G22KT P6SM FEW070 SCT090 FM220200 26007KT P6SM SKC FM220600 VRB05KT P6SM SKC FM222100 24006KT P6SM FEW140
Issued Jan-21 @ 23:36 UTC
(47 minutes ago)
Valid From Jan-22 @ 00:00 UTC
(23 minutes ago)
Valid To Jan-23 @ 00:00 UTC
(in 24 hours)
Jan-22 @ 00:00 - Jan-22 @ 02:00
Wind Visibility
260° at 14 knots
 Gusting to 22 knots
Greater than 6 miles
Clouds
  • Few at 7,000' AGL
  • Scattered at 9,000' AGL
From Jan-22 @ 02:00 - Jan-22 @ 06:00
Wind Visibility
260° at 7 knots Greater than 6 miles
Clouds
  • Clear skies
From Jan-22 @ 06:00 - Jan-22 @ 21:00
Wind Visibility
Variable at 5 knots Greater than 6 miles
Clouds
  • Clear skies
From Jan-22 @ 21:00 - Jan-23 @ 00:00
Wind Visibility
240° at 6 knots Greater than 6 miles
Clouds
  • Few at 14,000' AGL